createdAt,value
2019-03-16T00:02:12.074Z,21.00
2019-03-16T00:04:38.443Z,20.94
2019-03-16T00:07:04.788Z,20.99
2019-03-16T00:09:31.183Z,20.96
2019-03-16T00:11:57.750Z,20.96
2019-03-16T00:14:23.950Z,20.95
2019-03-16T00:16:50.279Z,20.96
2019-03-16T00:19:16.675Z,20.94
2019-03-16T00:21:43.004Z,20.90
2019-03-16T00:24:09.403Z,20.90
2019-03-16T00:26:36.866Z,20.88
2019-03-16T00:29:03.233Z,20.91
2019-03-16T00:31:29.560Z,20.89
2019-03-16T00:33:55.978Z,20.91
2019-03-16T00:36:22.389Z,20.89
2019-03-16T00:38:48.671Z,20.86
2019-03-16T00:41:14.992Z,20.87
2019-03-16T00:43:41.579Z,20.84
2019-03-16T00:46:08.002Z,20.85
2019-03-16T00:48:34.300Z,20.83
2019-03-16T00:51:00.633Z,20.80
2019-03-16T00:53:26.954Z,20.79
2019-03-16T00:55:53.336Z,20.79
2019-03-16T00:58:19.668Z,20.78
2019-03-16T01:00:46.004Z,20.78
2019-03-16T01:03:12.389Z,20.80
2019-03-16T01:05:38.781Z,20.77
2019-03-16T01:08:05.336Z,20.80
2019-03-16T01:10:31.705Z,20.80
2019-03-16T01:12:58.098Z,20.74
2019-03-16T01:15:24.432Z,20.79
2019-03-16T01:17:50.828Z,20.75
2019-03-16T01:20:17.239Z,20.73
2019-03-16T01:22:43.719Z,20.75
2019-03-16T01:25:10.124Z,20.71
2019-03-16T01:27:36.506Z,20.71
2019-03-16T01:30:02.846Z,20.69
2019-03-16T01:32:40.064Z,20.69
2019-03-16T01:34:56.716Z,20.70
2019-03-16T01:37:21.850Z,20.70
2019-03-16T01:39:48.236Z,20.68
2019-03-16T01:42:14.648Z,20.69
2019-03-16T01:44:41.002Z,20.66
2019-03-16T01:47:07.329Z,20.70
2019-03-16T01:49:33.671Z,20.68
2019-03-16T01:52:00.004Z,20.68
2019-03-16T01:54:26.596Z,20.64
2019-03-16T01:56:52.938Z,20.69
2019-03-16T01:59:19.261Z,20.61
2019-03-16T02:01:45.614Z,20.66
2019-03-16T02:04:11.997Z,20.62
2019-03-16T02:06:38.337Z,20.62
2019-03-16T02:09:04.757Z,20.62
2019-03-16T02:11:31.081Z,20.61
2019-03-16T02:13:57.427Z,20.65
2019-03-16T02:16:23.710Z,20.61
2019-03-16T02:18:50.113Z,20.59
2019-03-16T02:21:16.477Z,20.60
2019-03-16T02:23:42.960Z,20.57
2019-03-16T02:26:09.241Z,20.62
2019-03-16T02:28:35.678Z,20.59
2019-03-16T02:31:02.191Z,20.58
2019-03-16T02:33:28.374Z,20.60
2019-03-16T02:35:54.821Z,20.58
2019-03-16T02:38:21.194Z,20.60
2019-03-16T02:40:47.530Z,20.59
2019-03-16T02:43:13.892Z,20.58
2019-03-16T02:45:40.410Z,20.58
2019-03-16T02:48:06.619Z,20.58
2019-03-16T02:50:32.992Z,20.56
2019-03-16T02:52:59.372Z,20.54
2019-03-16T02:55:25.923Z,20.54
2019-03-16T02:57:52.568Z,20.54
2019-03-16T03:00:18.983Z,20.57
2019-03-16T03:02:45.300Z,20.49
2019-03-16T03:05:11.844Z,20.51
2019-03-16T03:07:38.264Z,20.59
2019-03-16T03:10:04.623Z,20.56
2019-03-16T03:12:31.009Z,20.56
2019-03-16T03:14:57.364Z,20.51
2019-03-16T03:17:23.689Z,20.51
2019-03-16T03:19:50.029Z,20.54
2019-03-16T03:22:16.368Z,20.51
2019-03-16T03:24:44.507Z,20.49
2019-03-16T03:27:09.113Z,20.53
2019-03-16T03:29:35.527Z,20.56
2019-03-16T03:32:02.025Z,20.53
2019-03-16T03:34:28.528Z,20.53
2019-03-16T03:36:54.866Z,20.48
2019-03-16T03:39:21.207Z,20.51
2019-03-16T03:41:47.544Z,20.50
2019-03-16T03:44:13.882Z,20.50
2019-03-16T03:46:40.213Z,20.50
2019-03-16T03:49:06.608Z,20.53
2019-03-16T03:51:32.882Z,20.49
2019-03-16T03:53:59.363Z,20.47
2019-03-16T03:56:25.600Z,20.49
2019-03-16T03:58:51.970Z,20.49
2019-03-16T04:01:18.311Z,20.53
2019-03-16T04:03:44.629Z,20.49
2019-03-16T04:06:11.021Z,20.47
2019-03-16T04:08:37.379Z,20.47
2019-03-16T04:11:03.694Z,20.54
2019-03-16T04:13:30.130Z,20.48
2019-03-16T04:15:56.554Z,20.49
2019-03-16T04:18:23.006Z,20.49
2019-03-16T04:20:49.431Z,20.53
2019-03-16T04:23:15.719Z,20.49
2019-03-16T04:25:42.079Z,20.48
2019-03-16T04:28:08.449Z,20.47
2019-03-16T04:30:34.791Z,20.44
2019-03-16T04:33:01.108Z,20.45
2019-03-16T04:35:27.612Z,20.46
2019-03-16T04:37:53.978Z,20.47
2019-03-16T04:40:20.351Z,20.47
2019-03-16T04:42:46.828Z,20.42
2019-03-16T04:45:13.166Z,20.43
2019-03-16T04:47:39.548Z,20.46
2019-03-16T04:50:05.902Z,20.43
2019-03-16T04:52:32.347Z,20.43
2019-03-16T04:54:58.679Z,20.45
2019-03-16T04:57:25.024Z,20.45
2019-03-16T04:59:51.390Z,20.44
2019-03-16T05:02:17.737Z,20.47
2019-03-16T05:04:44.111Z,20.55
2019-03-16T05:07:10.518Z,20.60
2019-03-16T05:09:36.827Z,20.70
2019-03-16T05:12:03.284Z,20.75
2019-03-16T05:14:30.746Z,20.81
2019-03-16T05:16:55.946Z,20.87
2019-03-16T05:19:22.299Z,20.94
2019-03-16T05:21:48.675Z,21.00
2019-03-16T05:24:15.027Z,21.02
2019-03-16T05:26:41.476Z,21.07
2019-03-16T05:29:07.821Z,21.13
2019-03-16T05:31:34.180Z,21.18
2019-03-16T05:34:00.512Z,21.23
2019-03-16T05:36:26.834Z,21.32
2019-03-16T05:38:53.191Z,21.36
2019-03-16T05:41:19.697Z,21.38
2019-03-16T05:43:46.031Z,21.44
2019-03-16T05:46:12.379Z,21.45
2019-03-16T05:48:38.737Z,21.46
2019-03-16T05:51:05.114Z,21.50
2019-03-16T05:53:31.621Z,21.54
2019-03-16T05:55:57.971Z,21.58
2019-03-16T05:58:24.360Z,21.60
2019-03-16T06:00:50.724Z,21.63
2019-03-16T06:03:17.048Z,21.64
2019-03-16T06:05:43.344Z,21.63
2019-03-16T06:08:09.679Z,21.65
2019-03-16T06:10:36.004Z,21.67
2019-03-16T06:13:02.348Z,21.67
2019-03-16T06:15:28.744Z,21.68
2019-03-16T06:17:55.073Z,21.65
2019-03-16T06:20:21.463Z,21.66
2019-03-16T06:22:47.898Z,21.63
2019-03-16T06:25:14.261Z,21.65
2019-03-16T06:27:40.643Z,21.64
2019-03-16T06:30:06.965Z,21.59
2019-03-16T06:32:33.303Z,21.54
2019-03-16T06:34:59.693Z,21.51
2019-03-16T06:37:26.022Z,21.48
2019-03-16T06:39:52.349Z,21.47
2019-03-16T06:42:18.680Z,21.47
2019-03-16T06:44:45.016Z,21.46
2019-03-16T06:47:11.353Z,21.46
2019-03-16T06:49:37.741Z,21.48
2019-03-16T06:52:04.078Z,21.49
2019-03-16T06:54:30.504Z,21.54
2019-03-16T06:56:56.770Z,21.54
2019-03-16T06:59:23.168Z,21.53
2019-03-16T07:01:49.493Z,21.59
2019-03-16T07:04:15.822Z,21.59
2019-03-16T07:06:42.162Z,21.58
2019-03-16T07:09:08.534Z,21.60
2019-03-16T07:11:34.881Z,21.62
2019-03-16T07:14:01.283Z,21.63
2019-03-16T07:16:27.611Z,21.67
2019-03-16T07:18:58.674Z,21.70
2019-03-16T07:21:20.417Z,21.72
2019-03-16T07:23:46.752Z,21.72
2019-03-16T07:26:15.193Z,21.74
2019-03-16T07:28:39.414Z,21.75
2019-03-16T07:31:05.749Z,21.76
2019-03-16T07:33:32.077Z,21.76
2019-03-16T07:35:58.424Z,21.78
2019-03-16T07:38:24.785Z,21.78
2019-03-16T07:40:51.131Z,21.79
2019-03-16T07:43:17.462Z,21.78
2019-03-16T07:45:43.853Z,21.78
2019-03-16T07:48:10.293Z,21.78
2019-03-16T07:50:36.619Z,21.76
2019-03-16T07:53:02.964Z,21.76
2019-03-16T07:55:29.322Z,21.79
2019-03-16T07:57:55.729Z,21.81
2019-03-16T08:00:22.065Z,21.83
2019-03-16T08:02:48.482Z,21.83
2019-03-16T08:05:18.708Z,21.85
2019-03-16T08:07:41.241Z,21.87
2019-03-16T08:10:07.619Z,21.87
2019-03-16T08:12:33.925Z,21.88
2019-03-16T08:15:00.359Z,21.88
2019-03-16T08:17:26.594Z,21.89
2019-03-16T08:19:53.009Z,21.89
2019-03-16T08:22:19.326Z,21.91
2019-03-16T08:24:45.713Z,21.90
2019-03-16T08:27:12.246Z,21.92
2019-03-16T08:29:38.601Z,21.92
2019-03-16T08:32:04.985Z,21.95
2019-03-16T08:34:31.341Z,21.95
2019-03-16T08:36:57.664Z,21.94
2019-03-16T08:39:24.028Z,21.96
2019-03-16T08:41:50.371Z,21.95
2019-03-16T08:44:16.850Z,21.96
2019-03-16T08:46:43.093Z,21.95
2019-03-16T08:49:09.444Z,21.96
2019-03-16T08:51:35.878Z,21.98
2019-03-16T08:54:02.289Z,21.97
2019-03-16T08:56:28.542Z,21.98
2019-03-16T08:58:54.874Z,21.98
2019-03-16T09:01:21.265Z,21.98
2019-03-16T09:03:47.579Z,21.98
2019-03-16T09:06:13.964Z,22.04
2019-03-16T09:08:40.324Z,22.04
2019-03-16T09:11:06.692Z,22.05
2019-03-16T09:13:33.086Z,22.03
2019-03-16T09:15:59.384Z,22.04
2019-03-16T09:18:25.758Z,22.05
2019-03-16T09:20:52.113Z,22.03
2019-03-16T09:23:18.423Z,22.04
2019-03-16T09:25:44.756Z,22.05
2019-03-16T09:28:18.474Z,22.07
2019-03-16T09:30:37.433Z,22.08
2019-03-16T09:33:03.862Z,22.08
2019-03-16T09:35:30.160Z,22.11
2019-03-16T09:37:56.645Z,22.09
2019-03-16T09:40:22.886Z,22.10
2019-03-16T09:42:49.224Z,22.08
2019-03-16T09:45:15.593Z,22.09
2019-03-16T09:47:41.984Z,22.10
2019-03-16T09:50:08.350Z,22.09
2019-03-16T09:52:34.920Z,22.12
2019-03-16T09:55:01.229Z,22.12
2019-03-16T09:57:27.578Z,22.08
2019-03-16T09:59:53.914Z,22.11
2019-03-16T10:02:20.259Z,22.10
2019-03-16T10:04:46.612Z,22.12
2019-03-16T10:07:13.008Z,22.12
2019-03-16T10:09:39.298Z,22.12
2019-03-16T10:12:05.634Z,22.13
2019-03-16T10:14:32.014Z,22.12
2019-03-16T10:16:58.396Z,22.13
2019-03-16T10:19:24.739Z,22.14
2019-03-16T10:21:51.061Z,22.16
2019-03-16T10:24:17.383Z,22.16
2019-03-16T10:26:43.714Z,22.16
2019-03-16T10:29:10.061Z,22.17
2019-03-16T10:31:36.433Z,22.16
2019-03-16T10:34:02.834Z,22.18
2019-03-16T10:36:29.124Z,22.18
2019-03-16T10:38:55.469Z,22.21
2019-03-16T10:41:21.797Z,22.22
2019-03-16T10:43:48.140Z,22.22
2019-03-16T10:46:14.477Z,22.22
2019-03-16T10:48:40.843Z,22.24
2019-03-16T10:51:07.198Z,22.25
2019-03-16T10:53:33.555Z,22.24
2019-03-16T10:55:59.902Z,22.27
2019-03-16T10:58:26.292Z,22.26
2019-03-16T11:00:52.565Z,22.25
2019-03-16T11:03:18.902Z,22.27
2019-03-16T11:05:45.277Z,22.29
2019-03-16T11:08:11.588Z,22.31
2019-03-16T11:10:37.917Z,22.34
2019-03-16T11:13:04.307Z,22.33
2019-03-16T11:15:30.637Z,22.34
2019-03-16T11:17:56.966Z,22.37
2019-03-16T11:20:23.293Z,22.38
2019-03-16T11:22:49.675Z,22.40
2019-03-16T11:25:16.021Z,22.39
2019-03-16T11:27:42.353Z,22.40
2019-03-16T11:30:08.673Z,22.40
2019-03-16T11:32:35.013Z,22.42
2019-03-16T11:35:01.453Z,22.41
2019-03-16T11:37:27.861Z,22.43
2019-03-16T11:39:54.208Z,22.44
2019-03-16T11:42:20.656Z,22.46
2019-03-16T11:44:46.988Z,22.47
2019-03-16T11:47:13.345Z,22.47
2019-03-16T11:49:39.778Z,22.46
2019-03-16T11:52:06.105Z,22.48
2019-03-16T11:54:32.434Z,22.47
2019-03-16T11:56:58.790Z,22.48
2019-03-16T11:59:25.128Z,22.50
2019-03-16T12:01:51.472Z,22.51
2019-03-16T12:04:17.816Z,22.53
2019-03-16T12:06:44.171Z,22.53
2019-03-16T12:09:10.558Z,22.53
2019-03-16T12:11:36.879Z,22.54
2019-03-16T12:14:03.230Z,22.55
2019-03-16T12:16:29.618Z,22.54
2019-03-16T12:18:56.022Z,22.56
2019-03-16T12:21:22.405Z,22.57
2019-03-16T12:23:48.698Z,22.57
2019-03-16T12:26:15.028Z,22.58
2019-03-16T12:28:41.434Z,22.57
2019-03-16T12:31:10.232Z,22.58
2019-03-16T12:33:36.591Z,22.61
2019-03-16T12:36:02.908Z,22.60
2019-03-16T12:38:29.286Z,22.58
2019-03-16T12:40:55.699Z,22.58
2019-03-16T12:43:22.010Z,22.63
2019-03-16T12:45:48.341Z,22.61
2019-03-16T12:48:14.673Z,22.63
2019-03-16T12:50:41.075Z,22.62
2019-03-16T12:53:07.439Z,22.64
2019-03-16T12:55:33.773Z,22.64
2019-03-16T12:58:00.098Z,22.66
2019-03-16T13:00:26.436Z,22.66
2019-03-16T13:02:52.852Z,22.68
2019-03-16T13:05:19.169Z,22.68
2019-03-16T13:07:45.555Z,22.71
2019-03-16T13:10:11.911Z,22.72
2019-03-16T13:12:39.230Z,22.72
2019-03-16T13:15:04.624Z,22.73
2019-03-16T13:17:30.959Z,22.75
2019-03-16T13:19:57.317Z,22.73
2019-03-16T13:22:23.664Z,22.72
2019-03-16T13:24:50.083Z,22.76
2019-03-16T13:27:16.410Z,22.78
2019-03-16T13:29:42.781Z,22.75
2019-03-16T13:32:08.975Z,22.76
2019-03-16T13:34:35.289Z,22.72
2019-03-16T13:37:01.653Z,22.75
2019-03-16T13:39:28.023Z,22.69
2019-03-16T13:41:54.359Z,22.69
2019-03-16T13:44:20.740Z,22.68
2019-03-16T13:46:47.132Z,22.65
2019-03-16T13:49:13.484Z,22.65
2019-03-16T13:51:39.901Z,22.63
2019-03-16T13:54:06.311Z,22.60
2019-03-16T13:56:32.605Z,22.60
2019-03-16T13:58:59.027Z,22.58
2019-03-16T14:01:25.344Z,22.60
2019-03-16T14:03:51.715Z,22.56
2019-03-16T14:06:18.045Z,22.54
2019-03-16T14:08:44.390Z,22.51
2019-03-16T14:11:10.796Z,22.54
2019-03-16T14:13:37.175Z,22.52
2019-03-16T14:16:03.620Z,22.50
2019-03-16T14:18:32.013Z,22.51
2019-03-16T14:20:56.466Z,22.49
2019-03-16T14:23:22.794Z,22.50
2019-03-16T14:25:49.246Z,22.43
2019-03-16T14:28:15.664Z,22.46
2019-03-16T14:30:45.030Z,22.46
2019-03-16T14:33:08.340Z,22.43
2019-03-16T14:35:34.759Z,22.43
2019-03-16T14:38:01.074Z,22.43
2019-03-16T14:40:27.542Z,22.42
2019-03-16T14:42:53.853Z,22.40
2019-03-16T14:45:20.208Z,22.38
2019-03-16T14:47:46.555Z,22.36
2019-03-16T14:50:15.976Z,22.38
2019-03-16T14:52:39.257Z,22.35
2019-03-16T14:55:05.594Z,22.32
2019-03-16T14:57:31.935Z,22.34
2019-03-16T14:59:59.518Z,22.37
2019-03-16T15:02:24.646Z,22.32
2019-03-16T15:04:50.977Z,22.31
2019-03-16T15:07:17.338Z,22.31
2019-03-16T15:09:43.680Z,22.29
2019-03-16T15:12:11.663Z,22.27
2019-03-16T15:14:37.947Z,22.31
2019-03-16T15:17:04.328Z,22.27
2019-03-16T15:19:30.969Z,22.28
2019-03-16T15:21:57.306Z,22.23
2019-03-16T15:24:23.695Z,22.25
2019-03-16T15:26:49.995Z,22.21
2019-03-16T15:29:16.414Z,22.24
2019-03-16T15:31:42.747Z,22.21
2019-03-16T15:34:09.111Z,22.20
2019-03-16T15:36:35.457Z,22.17
2019-03-16T15:39:01.809Z,22.17
2019-03-16T15:41:28.154Z,22.14
2019-03-16T15:43:54.555Z,22.13
2019-03-16T15:46:20.888Z,22.19
2019-03-16T15:48:47.177Z,22.12
2019-03-16T15:51:13.607Z,22.13
2019-03-16T15:53:39.942Z,22.08
2019-03-16T15:56:06.333Z,22.13
2019-03-16T15:58:32.713Z,22.06
2019-03-16T16:01:03.785Z,22.08
2019-03-16T16:03:25.367Z,22.11
2019-03-16T16:05:51.770Z,22.03
2019-03-16T16:08:19.346Z,22.03
2019-03-16T16:10:44.459Z,22.05
2019-03-16T16:13:10.817Z,22.05
2019-03-16T16:15:37.292Z,21.99
2019-03-16T16:18:03.714Z,21.96
2019-03-16T16:20:30.116Z,21.94
2019-03-16T16:22:56.462Z,21.95
2019-03-16T16:25:22.792Z,21.94
2019-03-16T16:27:49.185Z,21.93
2019-03-16T16:30:15.520Z,21.94
2019-03-16T16:32:41.875Z,21.91
2019-03-16T16:35:08.249Z,21.92
2019-03-16T16:37:34.601Z,21.87
2019-03-16T16:40:00.972Z,21.84
2019-03-16T16:42:27.298Z,21.87
2019-03-16T16:44:53.626Z,21.85
2019-03-16T16:47:20.010Z,21.85
2019-03-16T16:49:46.362Z,21.81
2019-03-16T16:52:12.762Z,21.76
2019-03-16T16:54:39.107Z,21.76
2019-03-16T16:57:05.476Z,21.79
2019-03-16T16:59:31.819Z,21.75
2019-03-16T17:01:58.197Z,21.76
2019-03-16T17:04:24.523Z,21.74
2019-03-16T17:06:50.861Z,21.69
2019-03-16T17:09:17.186Z,21.72
2019-03-16T17:11:43.570Z,21.66
2019-03-16T17:14:09.942Z,21.65
2019-03-16T17:16:36.268Z,21.63
2019-03-16T17:19:02.694Z,21.64
2019-03-16T17:21:29.073Z,21.63
2019-03-16T17:23:55.451Z,21.63
2019-03-16T17:26:21.793Z,21.60
2019-03-16T17:28:48.189Z,21.59
2019-03-16T17:31:14.840Z,21.59
2019-03-16T17:33:41.320Z,21.58
2019-03-16T17:36:07.696Z,21.54
2019-03-16T17:38:34.081Z,21.55
2019-03-16T17:41:00.490Z,21.53
2019-03-16T17:43:26.871Z,21.52
2019-03-16T17:45:53.144Z,21.51
2019-03-16T17:48:19.511Z,21.50
2019-03-16T17:50:45.884Z,21.48
2019-03-16T17:53:12.220Z,21.45
2019-03-16T17:55:38.589Z,21.45
2019-03-16T17:58:04.976Z,21.46
2019-03-16T18:00:31.407Z,21.43
2019-03-16T18:02:57.800Z,21.45
2019-03-16T18:05:24.107Z,21.39
2019-03-16T18:07:50.494Z,21.38
2019-03-16T18:10:16.831Z,21.39
2019-03-16T18:12:43.165Z,21.40
2019-03-16T18:15:11.697Z,21.36
2019-03-16T18:17:36.058Z,21.36
2019-03-16T18:20:02.391Z,21.35
2019-03-16T18:22:28.812Z,21.32
2019-03-16T18:24:55.106Z,21.34
2019-03-16T18:27:21.623Z,21.29
2019-03-16T18:29:47.962Z,21.32
2019-03-16T18:32:14.335Z,21.28
2019-03-16T18:34:40.666Z,21.25
2019-03-16T18:37:07.110Z,21.28
2019-03-16T18:39:33.434Z,21.24
2019-03-16T18:41:59.800Z,21.24
2019-03-16T18:44:26.379Z,21.17
2019-03-16T18:46:52.712Z,21.15
2019-03-16T18:49:19.063Z,21.19
2019-03-16T18:51:45.416Z,21.19
2019-03-16T18:54:11.805Z,21.17
2019-03-16T18:56:38.146Z,21.15
2019-03-16T18:59:04.561Z,21.18
2019-03-16T19:01:30.898Z,21.10
2019-03-16T19:03:57.227Z,21.10
2019-03-16T19:06:23.578Z,21.09
2019-03-16T19:08:49.945Z,21.10
2019-03-16T19:11:16.302Z,21.10
2019-03-16T19:13:42.657Z,21.11
2019-03-16T19:16:08.983Z,21.13
2019-03-16T19:18:35.363Z,21.05
2019-03-16T19:21:01.750Z,21.06
2019-03-16T19:23:28.094Z,21.03
2019-03-16T19:25:54.443Z,21.02
2019-03-16T19:28:20.874Z,21.03
2019-03-16T19:30:47.308Z,20.95
2019-03-16T19:33:13.595Z,21.02
2019-03-16T19:35:39.976Z,20.98
2019-03-16T19:38:06.360Z,20.96
2019-03-16T19:40:32.715Z,20.96
2019-03-16T19:42:59.049Z,20.93
2019-03-16T19:45:25.401Z,20.95
2019-03-16T19:47:51.731Z,20.89
2019-03-16T19:50:18.064Z,20.88
2019-03-16T19:52:44.425Z,20.90
2019-03-16T19:55:10.782Z,20.91
2019-03-16T19:57:37.250Z,20.89
2019-03-16T20:00:03.587Z,20.85
2019-03-16T20:02:30.017Z,20.85
2019-03-16T20:04:56.397Z,20.85
2019-03-16T20:07:23.123Z,20.79
2019-03-16T20:09:49.073Z,20.88
2019-03-16T20:12:15.418Z,20.80
2019-03-16T20:14:41.756Z,20.84
2019-03-16T20:17:08.096Z,20.79
2019-03-16T20:19:34.423Z,20.79
2019-03-16T20:22:00.860Z,20.76
2019-03-16T20:24:27.202Z,20.77
2019-03-16T20:26:53.540Z,20.75
2019-03-16T20:29:19.896Z,20.77
2019-03-16T20:31:47.382Z,20.75
2019-03-16T20:34:12.732Z,20.76
2019-03-16T20:36:39.123Z,20.73
2019-03-16T20:39:05.477Z,20.74
2019-03-16T20:41:36.389Z,20.73
2019-03-16T20:43:58.178Z,20.77
2019-03-16T20:46:24.490Z,20.74
2019-03-16T20:48:50.838Z,20.72
2019-03-16T20:51:17.175Z,20.74
2019-03-16T20:53:43.514Z,20.72
2019-03-16T20:56:09.839Z,20.74
2019-03-16T20:58:36.247Z,20.72
2019-03-16T21:01:02.639Z,20.74
2019-03-16T21:03:28.909Z,20.73
2019-03-16T21:05:55.235Z,20.73
2019-03-16T21:08:21.653Z,20.72
2019-03-16T21:10:48.027Z,20.71
2019-03-16T21:13:14.390Z,20.70
2019-03-16T21:15:40.823Z,20.68
2019-03-16T21:18:07.172Z,20.68
2019-03-16T21:20:33.500Z,20.68
2019-03-16T21:22:59.875Z,20.71
2019-03-16T21:25:26.268Z,20.74
2019-03-16T21:27:52.599Z,20.81
2019-03-16T21:30:18.941Z,20.79
2019-03-16T21:32:45.276Z,20.80
2019-03-16T21:35:11.668Z,20.77
2019-03-16T21:37:38.045Z,20.79
2019-03-16T21:40:04.330Z,20.75
2019-03-16T21:42:30.777Z,20.74
2019-03-16T21:44:57.128Z,20.70
2019-03-16T21:47:23.499Z,20.70
2019-03-16T21:49:49.825Z,20.71
2019-03-16T21:52:16.159Z,20.71
2019-03-16T21:54:42.492Z,20.69
2019-03-16T21:57:08.951Z,20.68
2019-03-16T21:59:35.155Z,20.65
2019-03-16T22:02:01.493Z,20.69
2019-03-16T22:04:27.825Z,20.71
2019-03-16T22:06:54.233Z,20.65
2019-03-16T22:09:20.514Z,20.64
2019-03-16T22:11:46.968Z,20.64
2019-03-16T22:14:13.250Z,20.65
2019-03-16T22:16:39.597Z,20.62
2019-03-16T22:19:05.932Z,20.60
2019-03-16T22:21:32.368Z,20.61
2019-03-16T22:23:58.818Z,20.62
2019-03-16T22:26:25.143Z,20.58
2019-03-16T22:28:51.507Z,20.56
2019-03-16T22:31:17.958Z,20.63
2019-03-16T22:33:53.990Z,20.61
2019-03-16T22:36:10.665Z,20.59
2019-03-16T22:38:36.995Z,20.56
2019-03-16T22:41:03.496Z,20.56
2019-03-16T22:43:29.849Z,20.57
2019-03-16T22:45:56.220Z,20.55
2019-03-16T22:48:22.545Z,20.56
2019-03-16T22:50:48.871Z,20.54
2019-03-16T22:53:15.225Z,20.56
2019-03-16T22:55:41.638Z,20.51
2019-03-16T22:58:07.965Z,20.55
2019-03-16T23:00:37.029Z,20.53
2019-03-16T23:03:00.637Z,20.50
2019-03-16T23:05:27.031Z,20.53
2019-03-16T23:07:53.441Z,20.54
2019-03-16T23:10:19.732Z,20.50
2019-03-16T23:12:46.114Z,20.50
2019-03-16T23:15:12.405Z,20.47
2019-03-16T23:17:38.817Z,20.48
2019-03-16T23:20:05.208Z,20.47
2019-03-16T23:22:31.532Z,20.47
2019-03-16T23:24:57.908Z,20.49
2019-03-16T23:27:24.333Z,20.48
2019-03-16T23:29:50.687Z,20.44
2019-03-16T23:32:17.026Z,20.48
2019-03-16T23:34:43.364Z,20.48
2019-03-16T23:37:09.699Z,20.44
2019-03-16T23:39:36.078Z,20.44
2019-03-16T23:42:02.435Z,20.43
2019-03-16T23:44:28.765Z,20.45
2019-03-16T23:46:55.097Z,20.43
2019-03-16T23:49:21.479Z,20.42
2019-03-16T23:51:47.874Z,20.41
2019-03-16T23:54:14.207Z,20.44
2019-03-16T23:56:40.577Z,20.43
2019-03-16T23:59:06.916Z,20.42
